createdAt,value
2019-05-11T00:00:31.939Z,2.00
2019-05-11T00:03:01.519Z,2.30
2019-05-11T00:05:31.055Z,2.40
2019-05-11T00:08:00.594Z,2.30
2019-05-11T00:10:30.106Z,2.50
2019-05-11T00:12:59.625Z,2.40
2019-05-11T00:15:29.306Z,2.20
2019-05-11T00:17:58.899Z,2.90
2019-05-11T00:20:28.396Z,2.85
2019-05-11T00:22:57.918Z,2.90
2019-05-11T00:25:27.506Z,3.00
2019-05-11T00:27:57.010Z,2.77
2019-05-11T00:30:26.516Z,2.80
2019-05-11T00:32:56.072Z,2.77
2019-05-11T00:35:25.561Z,2.80
2019-05-11T00:37:55.095Z,3.20
2019-05-11T00:40:24.681Z,2.70
2019-05-11T00:42:54.179Z,2.60
2019-05-11T00:45:23.744Z,2.80
2019-05-11T00:47:53.292Z,2.67
2019-05-11T00:50:37.905Z,2.60
2019-05-11T00:52:54.219Z,2.52
2019-05-11T00:55:23.709Z,2.37
2019-05-11T00:57:53.203Z,2.52
2019-05-11T01:00:22.841Z,2.90
2019-05-11T01:02:52.481Z,2.67
2019-05-11T01:05:21.975Z,3.00
2019-05-11T01:07:51.454Z,3.05
2019-05-11T01:10:25.471Z,2.95
2019-05-11T01:12:52.191Z,2.70
2019-05-11T01:15:21.769Z,2.72
2019-05-11T01:17:51.227Z,3.15
2019-05-11T01:20:20.813Z,2.80
2019-05-11T01:22:50.386Z,3.10
2019-05-11T01:25:19.927Z,2.90
2019-05-11T01:27:49.444Z,2.50
2019-05-11T01:30:19.085Z,2.67
2019-05-11T01:32:48.559Z,2.50
2019-05-11T01:35:18.204Z,2.45
2019-05-11T01:37:47.700Z,2.40
2019-05-11T01:40:17.239Z,2.20
2019-05-11T01:42:46.769Z,2.42
2019-05-11T01:45:16.478Z,2.30
2019-05-11T01:47:46.045Z,1.90
2019-05-11T01:50:15.651Z,2.30
2019-05-11T01:52:45.143Z,2.10
2019-05-11T01:55:14.703Z,2.50
2019-05-11T01:57:44.356Z,2.50
2019-05-11T02:00:13.971Z,2.27
2019-05-11T02:02:43.476Z,1.98
2019-05-11T02:05:14.683Z,1.90
2019-05-11T02:07:44.180Z,2.00
2019-05-11T02:10:13.781Z,1.93
2019-05-11T02:12:43.255Z,2.10
2019-05-11T02:15:12.824Z,2.00
2019-05-11T02:17:42.342Z,1.92
2019-05-11T02:20:12.245Z,1.70
2019-05-11T02:22:41.722Z,1.90
2019-05-11T02:25:11.603Z,1.90
2019-05-11T02:27:41.152Z,1.90
2019-05-11T02:30:11.054Z,2.30
2019-05-11T02:32:40.545Z,1.90
2019-05-11T02:35:10.302Z,2.70
2019-05-11T02:37:39.800Z,1.90
2019-05-11T02:40:09.906Z,1.92
2019-05-11T02:42:39.433Z,2.10
2019-05-11T02:45:09.331Z,2.10
2019-05-11T02:47:38.958Z,2.00
2019-05-11T02:50:09.185Z,2.00
2019-05-11T02:52:39.023Z,2.20
2019-05-11T02:55:08.938Z,2.70
2019-05-11T02:57:38.463Z,2.50
2019-05-11T03:00:09.526Z,3.00
2019-05-11T03:02:38.991Z,2.70
2019-05-11T03:05:08.556Z,2.80
2019-05-11T03:07:38.063Z,2.83
2019-05-11T03:10:07.641Z,2.70
2019-05-11T03:12:37.144Z,2.87
2019-05-11T03:15:07.491Z,2.60
2019-05-11T03:17:37.068Z,3.02
2019-05-11T03:20:07.207Z,3.47
2019-05-11T03:22:36.670Z,3.47
2019-05-11T03:25:06.598Z,3.17
2019-05-11T03:27:36.069Z,3.40
2019-05-11T03:30:07.357Z,3.15
2019-05-11T03:32:36.916Z,3.08
2019-05-11T03:35:06.482Z,3.20
2019-05-11T03:37:36.014Z,2.85
2019-05-11T03:40:06.664Z,2.70
2019-05-11T03:42:36.301Z,3.00
2019-05-11T03:45:07.531Z,3.10
2019-05-11T03:47:37.056Z,2.87
2019-05-11T03:50:07.279Z,2.70
2019-05-11T03:52:36.909Z,2.70
2019-05-11T03:55:07.426Z,3.10
2019-05-11T03:57:37.000Z,2.60
2019-05-11T04:00:07.145Z,2.67
2019-05-11T04:02:36.691Z,5.10
2019-05-11T04:05:06.315Z,6.80
2019-05-11T04:07:35.816Z,11.18
2019-05-11T04:10:07.861Z,10.40
2019-05-11T04:12:37.433Z,10.08
2019-05-11T04:15:08.465Z,5.50
2019-05-11T04:17:37.977Z,4.37
2019-05-11T04:20:07.900Z,3.20
2019-05-11T04:22:37.380Z,3.00
2019-05-11T04:25:07.213Z,4.00
2019-05-11T04:27:36.728Z,3.00
2019-05-11T04:30:07.046Z,3.10
2019-05-11T04:32:36.527Z,2.75
2019-05-11T04:35:06.339Z,2.25
2019-05-11T04:37:36.842Z,2.30
2019-05-11T04:40:06.569Z,2.15
2019-05-11T04:42:53.329Z,2.60
2019-05-11T04:45:08.559Z,2.70
2019-05-11T04:47:38.060Z,2.30
2019-05-11T04:50:08.289Z,3.15
2019-05-11T04:52:37.774Z,3.00
2019-05-11T04:55:07.624Z,2.70
2019-05-11T04:57:37.184Z,2.20
2019-05-11T05:00:08.406Z,2.20
2019-05-11T05:02:37.880Z,2.30
2019-05-11T05:05:07.723Z,2.50
2019-05-11T05:07:37.331Z,2.37
2019-05-11T05:10:08.378Z,2.17
2019-05-11T05:12:38.008Z,2.35
2019-05-11T05:15:07.541Z,2.00
2019-05-11T05:17:37.006Z,2.35
2019-05-11T05:20:08.052Z,2.45
2019-05-11T05:22:37.590Z,2.45
2019-05-11T05:25:08.525Z,2.30
2019-05-11T05:27:38.030Z,2.00
2019-05-11T05:30:08.223Z,2.00
2019-05-11T05:32:37.779Z,2.03
2019-05-11T05:35:07.657Z,2.40
2019-05-11T05:37:37.194Z,2.05
2019-05-11T05:40:08.044Z,2.20
2019-05-11T05:42:37.541Z,1.60
2019-05-11T05:45:07.247Z,1.80
2019-05-11T05:47:36.735Z,2.00
2019-05-11T05:50:07.129Z,1.80
2019-05-11T05:52:36.586Z,2.45
2019-05-11T05:55:06.905Z,1.95
2019-05-11T05:57:36.367Z,2.30
2019-05-11T06:00:06.340Z,3.05
2019-05-11T06:02:35.857Z,4.60
2019-05-11T06:05:07.043Z,4.10
2019-05-11T06:10:02.260Z,4.47
2019-05-11T06:12:31.805Z,4.93
2019-05-11T06:15:01.379Z,3.93
2019-05-11T06:17:30.875Z,4.00
2019-05-11T06:20:00.400Z,3.67
2019-05-11T06:22:29.968Z,4.07
2019-05-11T06:24:59.543Z,3.57
2019-05-11T06:27:29.068Z,3.70
2019-05-11T06:29:58.582Z,3.30
2019-05-11T06:32:28.056Z,3.30
2019-05-11T06:34:57.531Z,2.40
2019-05-11T06:37:27.002Z,2.60
2019-05-11T06:39:56.519Z,3.00
2019-05-11T06:42:26.007Z,2.00
2019-05-11T06:44:55.538Z,2.47
2019-05-11T06:47:25.090Z,2.10
2019-05-11T06:49:54.645Z,2.20
2019-05-11T06:52:24.097Z,2.10
2019-05-11T06:54:53.671Z,1.73
2019-05-11T06:57:23.143Z,2.20
2019-05-11T06:59:52.805Z,1.90
2019-05-11T07:02:22.284Z,2.20
2019-05-11T07:04:51.816Z,1.90
2019-05-11T07:07:21.277Z,2.17
2019-05-11T07:09:50.790Z,1.80
2019-05-11T07:12:20.414Z,2.10
2019-05-11T07:14:49.968Z,2.10
2019-05-11T07:17:19.459Z,2.10
2019-05-11T07:19:48.976Z,1.70
2019-05-11T07:22:18.447Z,1.80
2019-05-11T07:24:47.961Z,2.07
2019-05-11T07:27:17.517Z,2.27
2019-05-11T07:29:47.058Z,2.07
2019-05-11T07:32:25.075Z,1.90
2019-05-11T07:34:48.732Z,2.00
2019-05-11T07:37:18.603Z,2.00
2019-05-11T07:39:48.822Z,1.67
2019-05-11T07:42:18.354Z,1.90
2019-05-11T07:44:48.215Z,2.03
2019-05-11T07:47:18.637Z,1.80
2019-05-11T07:49:48.961Z,1.80
2019-05-11T07:52:18.510Z,1.67
2019-05-11T07:54:52.583Z,2.00
2019-05-11T07:57:19.297Z,1.60
2019-05-11T07:59:48.771Z,2.10
2019-05-11T08:02:18.255Z,2.00
2019-05-11T08:04:48.233Z,1.80
2019-05-11T08:07:18.209Z,1.80
2019-05-11T08:09:48.426Z,1.77
2019-05-11T08:12:19.161Z,2.17
2019-05-11T08:15:00.887Z,1.70
2019-05-11T08:17:20.315Z,2.33
2019-05-11T08:19:49.889Z,1.80
2019-05-11T08:22:22.730Z,1.83
2019-05-11T08:24:50.660Z,2.00
2019-05-11T08:27:20.141Z,2.00
2019-05-11T08:29:49.626Z,2.07
2019-05-11T08:32:19.217Z,1.50
2019-05-11T08:34:49.152Z,1.57
2019-05-11T08:37:19.033Z,2.23
2019-05-11T08:39:48.757Z,2.10
2019-05-11T08:42:18.418Z,2.30
2019-05-11T08:44:48.436Z,1.90
2019-05-11T08:47:18.100Z,2.03
2019-05-11T08:49:48.402Z,2.00
2019-05-11T08:52:18.726Z,1.90
2019-05-11T08:54:48.765Z,2.10
2019-05-11T08:57:18.345Z,2.37
2019-05-11T08:59:48.405Z,2.10
2019-05-11T09:02:18.720Z,2.00
2019-05-11T09:04:48.577Z,1.97
2019-05-11T09:07:18.531Z,2.10
2019-05-11T09:09:48.466Z,2.00
2019-05-11T09:12:18.293Z,2.00
2019-05-11T09:14:48.002Z,2.13
2019-05-11T09:17:18.255Z,2.13
2019-05-11T09:19:48.128Z,2.30
2019-05-11T09:22:18.711Z,2.20
2019-05-11T09:24:48.543Z,1.90
2019-05-11T09:27:18.498Z,1.80
2019-05-11T09:29:48.225Z,1.97
2019-05-11T09:32:18.101Z,1.93
2019-05-11T09:34:48.538Z,1.80
2019-05-11T09:37:18.486Z,2.00
2019-05-11T09:39:48.060Z,2.20
2019-05-11T09:42:18.051Z,2.20
2019-05-11T09:44:48.546Z,2.15
2019-05-11T09:47:19.063Z,1.90
2019-05-11T09:49:51.152Z,1.73
2019-05-11T09:52:19.919Z,1.90
2019-05-11T09:54:49.508Z,1.73
2019-05-11T09:57:19.028Z,1.70
2019-05-11T09:59:48.478Z,1.93
2019-05-11T10:02:21.017Z,1.77
2019-05-11T10:04:49.314Z,1.70
2019-05-11T10:07:18.840Z,2.13
2019-05-11T10:09:48.338Z,2.20
2019-05-11T10:12:18.245Z,2.20
2019-05-11T10:14:48.591Z,2.43
2019-05-11T10:17:18.341Z,2.22
2019-05-11T10:19:49.676Z,2.10
2019-05-11T10:22:19.124Z,1.95
2019-05-11T10:24:48.603Z,2.35
2019-05-11T10:27:18.944Z,1.87
2019-05-11T10:29:49.490Z,2.30
2019-05-11T10:32:19.013Z,1.97
2019-05-11T10:34:48.497Z,1.80
2019-05-11T10:37:18.077Z,1.82
2019-05-11T10:39:48.812Z,1.90
2019-05-11T10:42:18.459Z,2.02
2019-05-11T10:44:48.031Z,1.97
2019-05-11T10:47:18.483Z,2.17
2019-05-11T10:49:48.592Z,1.80
2019-05-11T10:52:18.235Z,2.10
2019-05-11T10:54:47.995Z,1.90
2019-05-11T10:57:18.940Z,2.60
2019-05-11T10:59:48.924Z,10.10
2019-05-11T11:02:18.624Z,12.05
2019-05-11T11:04:48.667Z,9.80
2019-05-11T11:07:19.533Z,2.80
2019-05-11T11:09:49.255Z,4.13
2019-05-11T11:12:18.912Z,5.77
2019-05-11T11:14:48.395Z,5.87
2019-05-11T11:17:19.193Z,4.37
2019-05-11T11:19:48.872Z,4.30
2019-05-11T11:22:35.805Z,2.53
2019-05-11T11:24:49.611Z,2.70
2019-05-11T11:27:22.418Z,1.80
2019-05-11T11:29:52.010Z,1.80
2019-05-11T11:32:21.518Z,2.00
2019-05-11T11:34:51.170Z,1.50
2019-05-11T11:37:20.746Z,1.80
2019-05-11T11:39:50.345Z,1.50
2019-05-11T11:42:19.818Z,2.27
2019-05-11T11:44:49.311Z,1.67
2019-05-11T11:47:21.361Z,1.60
2019-05-11T11:49:49.981Z,1.63
2019-05-11T11:52:19.545Z,1.60
2019-05-11T11:54:49.079Z,1.33
2019-05-11T11:57:18.567Z,1.20
2019-05-11T11:59:48.352Z,1.10
2019-05-11T12:02:19.031Z,1.50
2019-05-11T12:04:48.834Z,1.67
2019-05-11T12:07:18.356Z,1.70
2019-05-11T12:09:48.558Z,1.30
2019-05-11T12:12:18.674Z,1.53
2019-05-11T12:14:48.316Z,5.05
2019-05-11T12:17:18.272Z,2.53
2019-05-11T12:19:48.076Z,2.67
2019-05-11T12:22:18.793Z,2.00
2019-05-11T12:24:48.476Z,2.70
2019-05-11T12:27:18.419Z,2.77
2019-05-11T12:29:47.966Z,1.53
2019-05-11T12:32:19.371Z,2.07
2019-05-11T12:34:48.984Z,3.73
2019-05-11T12:37:21.783Z,1.70
2019-05-11T12:39:49.991Z,2.90
2019-05-11T12:42:19.549Z,2.40
2019-05-11T12:44:49.031Z,1.97
2019-05-11T12:47:24.688Z,2.00
2019-05-11T12:49:49.795Z,2.17
2019-05-11T12:52:19.285Z,1.63
2019-05-11T12:54:49.110Z,1.83
2019-05-11T12:57:18.806Z,1.77
2019-05-11T12:59:48.923Z,3.50
2019-05-11T13:02:18.607Z,1.70
2019-05-11T13:04:48.046Z,1.60
2019-05-11T13:07:19.674Z,1.70
2019-05-11T13:09:48.767Z,1.40
2019-05-11T13:12:18.710Z,1.37
2019-05-11T13:14:48.948Z,1.87
2019-05-11T13:17:22.933Z,2.10
2019-05-11T13:19:49.663Z,1.50
2019-05-11T13:22:19.118Z,3.20
2019-05-11T13:24:48.662Z,2.70
2019-05-11T13:27:18.177Z,1.57
2019-05-11T13:29:48.622Z,3.00
2019-05-11T13:32:18.723Z,3.12
2019-05-11T13:34:48.386Z,1.80
2019-05-11T13:37:18.801Z,1.30
2019-05-11T13:39:48.754Z,1.60
2019-05-11T13:42:19.524Z,1.65
2019-05-11T13:44:49.614Z,1.40
2019-05-11T13:47:19.094Z,1.35
2019-05-11T13:49:48.609Z,1.57
2019-05-11T13:52:18.545Z,1.30
2019-05-11T13:54:48.363Z,1.40
2019-05-11T13:57:18.256Z,1.30
2019-05-11T13:59:47.852Z,1.20
2019-05-11T14:02:18.086Z,1.50
2019-05-11T14:04:48.196Z,1.20
2019-05-11T14:07:18.620Z,1.50
2019-05-11T14:09:48.613Z,1.65
2019-05-11T14:12:18.350Z,1.40
2019-05-11T14:14:48.179Z,1.70
2019-05-11T14:17:18.660Z,1.37
2019-05-11T14:19:49.330Z,1.40
2019-05-11T14:22:18.952Z,1.40
2019-05-11T14:24:51.661Z,1.30
2019-05-11T14:27:21.128Z,1.70
2019-05-11T14:29:50.666Z,1.32
2019-05-11T14:32:20.312Z,1.40
2019-05-11T14:34:49.820Z,3.70
2019-05-11T14:37:19.350Z,2.62
2019-05-11T14:39:48.838Z,3.20
2019-05-11T14:42:22.032Z,2.33
2019-05-11T14:44:49.638Z,2.23
2019-05-11T14:47:19.196Z,1.82
2019-05-11T14:49:48.688Z,3.90
2019-05-11T14:52:18.761Z,1.70
2019-05-11T14:54:48.704Z,1.82
2019-05-11T14:57:18.762Z,2.10
2019-05-11T14:59:48.739Z,2.80
2019-05-11T15:02:19.922Z,2.85
2019-05-11T15:04:49.439Z,2.08
2019-05-11T15:07:18.981Z,2.22
2019-05-11T15:09:48.479Z,1.55
2019-05-11T15:12:18.360Z,1.77
2019-05-11T15:14:48.595Z,1.60
2019-05-11T15:17:18.676Z,1.60
2019-05-11T15:19:48.872Z,1.57
2019-05-11T15:22:18.657Z,1.30
2019-05-11T15:24:49.141Z,1.35
2019-05-11T15:27:18.649Z,1.30
2019-05-11T15:29:48.377Z,1.22
2019-05-11T15:32:18.088Z,1.30
2019-05-11T15:34:48.717Z,1.20
2019-05-11T15:37:18.347Z,1.40
2019-05-11T15:39:48.385Z,1.30
2019-05-11T15:42:19.910Z,1.20
2019-05-11T15:44:49.172Z,1.45
2019-05-11T15:47:18.688Z,1.40
2019-05-11T15:49:48.573Z,1.40
2019-05-11T15:52:18.859Z,1.27
2019-05-11T15:54:48.565Z,1.45
2019-05-11T15:57:18.187Z,1.25
2019-05-11T15:59:48.229Z,1.80
2019-05-11T16:02:18.073Z,1.30
2019-05-11T16:04:49.343Z,1.40
2019-05-11T16:07:18.986Z,1.20
2019-05-11T16:09:48.761Z,1.40
2019-05-11T16:12:18.366Z,1.45
2019-05-11T16:15:19.531Z,1.30
2019-05-11T16:17:49.924Z,1.60
2019-05-11T16:20:19.753Z,1.40
2019-05-11T16:22:49.381Z,1.30
2019-05-11T16:25:19.973Z,1.50
2019-05-11T16:27:49.934Z,1.50
2019-05-11T16:30:21.720Z,1.50
2019-05-11T16:32:51.473Z,1.67
2019-05-11T16:35:21.330Z,1.50
2019-05-11T16:37:50.879Z,1.40
2019-05-11T16:40:21.122Z,1.67
2019-05-11T16:42:50.942Z,1.40
2019-05-11T16:45:23.487Z,1.30
2019-05-11T16:47:51.918Z,1.40
2019-05-11T16:50:21.541Z,1.47
2019-05-11T16:52:51.091Z,1.50
2019-05-11T16:55:20.598Z,1.30
2019-05-11T16:57:50.106Z,1.33
2019-05-11T17:00:19.762Z,1.23
2019-05-11T17:02:49.456Z,1.30
2019-05-11T17:05:26.531Z,1.53
2019-05-11T17:07:50.502Z,1.47
2019-05-11T17:10:20.062Z,1.40
2019-05-11T17:12:49.624Z,1.40
2019-05-11T17:15:19.369Z,1.60
2019-05-11T17:17:49.327Z,1.30
2019-05-11T17:20:19.291Z,1.37
2019-05-11T17:22:49.470Z,1.40
2019-05-11T17:25:19.631Z,1.47
2019-05-11T17:27:49.534Z,1.60
2019-05-11T17:30:19.803Z,1.50
2019-05-11T17:32:50.022Z,1.50
2019-05-11T17:35:19.813Z,1.80
2019-05-11T17:37:49.289Z,1.72
2019-05-11T17:40:23.143Z,1.65
2019-05-11T17:42:53.647Z,1.70
2019-05-11T17:45:21.521Z,2.05
2019-05-11T17:47:51.349Z,2.20
2019-05-11T17:50:20.821Z,1.80
2019-05-11T17:52:50.325Z,2.05
2019-05-11T17:55:19.799Z,2.20
2019-05-11T17:57:53.415Z,1.50
2019-05-11T18:00:20.715Z,1.50
2019-05-11T18:02:50.644Z,2.05
2019-05-11T18:05:20.394Z,2.10
2019-05-11T18:07:49.940Z,1.90
2019-05-11T18:10:21.406Z,1.73
2019-05-11T18:12:52.676Z,1.70
2019-05-11T18:15:22.262Z,1.50
2019-05-11T18:17:51.708Z,1.80
2019-05-11T18:20:22.291Z,1.57
2019-05-11T18:22:52.020Z,1.40
2019-05-11T18:25:21.710Z,1.40
2019-05-11T18:27:51.925Z,1.30
2019-05-11T18:30:21.518Z,1.53
2019-05-11T18:32:51.012Z,1.60
2019-05-11T18:35:21.589Z,1.50
2019-05-11T18:37:51.123Z,1.55
2019-05-11T18:40:20.589Z,1.40
2019-05-11T18:42:50.470Z,1.35
2019-05-11T18:45:20.595Z,1.70
2019-05-11T18:47:50.164Z,1.60
2019-05-11T18:50:30.704Z,1.40
2019-05-11T18:52:52.015Z,1.30
2019-05-11T18:55:21.523Z,1.35
2019-05-11T18:57:51.023Z,1.55
2019-05-11T19:00:21.613Z,1.60
2019-05-11T19:02:51.142Z,1.37
2019-05-11T19:05:20.699Z,1.70
2019-05-11T19:07:50.520Z,1.57
2019-05-11T19:10:19.984Z,1.60
2019-05-11T19:12:49.716Z,1.60
2019-05-11T19:15:19.499Z,1.50
2019-05-11T19:17:49.509Z,1.70
2019-05-11T19:20:19.312Z,1.30
2019-05-11T19:22:48.772Z,1.53
2019-05-11T19:25:18.566Z,1.57
2019-05-11T19:27:50.612Z,1.60
2019-05-11T19:30:19.821Z,1.33
2019-05-11T19:32:49.279Z,1.32
2019-05-11T19:35:21.051Z,1.52
2019-05-11T19:37:50.016Z,2.08
2019-05-11T19:40:19.507Z,1.70
2019-05-11T19:42:53.506Z,1.67
2019-05-11T19:45:21.893Z,1.35
2019-05-11T19:47:51.465Z,1.37
2019-05-11T19:50:21.055Z,1.57
2019-05-11T19:52:50.542Z,1.60
2019-05-11T19:55:20.084Z,1.60
2019-05-11T19:57:49.651Z,1.50
2019-05-11T20:00:19.417Z,1.50
2019-05-11T20:02:49.016Z,1.37
2019-05-11T20:05:18.692Z,1.72
2019-05-11T20:07:48.964Z,1.90
2019-05-11T20:10:19.215Z,1.50
2019-05-11T20:12:48.895Z,1.60
2019-05-11T20:15:19.082Z,1.70
2019-05-11T20:17:49.192Z,1.65
2019-05-11T20:20:19.019Z,1.92
2019-05-11T20:22:48.803Z,1.85
2019-05-11T20:25:19.334Z,1.90
2019-05-11T20:27:49.274Z,1.70
2019-05-11T20:30:19.368Z,1.75
2019-05-11T20:32:49.514Z,1.77
2019-05-11T20:35:19.059Z,1.70
2019-05-11T20:37:48.669Z,2.25
2019-05-11T20:40:19.751Z,2.00
2019-05-11T20:42:49.297Z,2.60
2019-05-11T20:45:19.078Z,2.25
2019-05-11T20:47:49.122Z,2.22
2019-05-11T20:50:18.983Z,2.40
2019-05-11T20:52:48.879Z,2.50
2019-05-11T20:55:18.639Z,2.40
2019-05-11T20:57:48.618Z,2.20
2019-05-11T21:00:19.757Z,2.45
2019-05-11T21:02:49.320Z,2.60
2019-05-11T21:05:18.918Z,2.42
2019-05-11T21:07:48.440Z,2.55
2019-05-11T21:10:18.027Z,2.22
2019-05-11T21:12:50.742Z,2.30
2019-05-11T21:15:20.249Z,2.10
2019-05-11T21:17:50.725Z,2.40
2019-05-11T21:20:20.404Z,2.30
2019-05-11T21:22:49.869Z,2.52
2019-05-11T21:25:19.388Z,2.50
2019-05-11T21:27:48.929Z,2.27
2019-05-11T21:30:18.849Z,2.20
2019-05-11T21:32:48.433Z,2.37
2019-05-11T21:35:19.205Z,2.52
2019-05-11T21:37:49.044Z,2.63
2019-05-11T21:40:18.639Z,2.22
2019-05-11T21:42:48.180Z,2.50
2019-05-11T21:45:18.510Z,2.37
2019-05-11T21:47:49.045Z,2.20
2019-05-11T21:50:19.262Z,2.40
2019-05-11T21:52:48.997Z,2.53
2019-05-11T21:55:18.557Z,2.60
2019-05-11T21:57:49.862Z,2.20
2019-05-11T22:00:19.988Z,2.17
2019-05-11T22:02:49.790Z,2.55
2019-05-11T22:05:22.588Z,2.70
2019-05-11T22:07:52.113Z,2.50
2019-05-11T22:10:21.629Z,2.37
2019-05-11T22:12:51.149Z,2.37
2019-05-11T22:15:20.619Z,2.35
2019-05-11T22:17:50.172Z,2.52
2019-05-11T22:20:19.809Z,2.60
2019-05-11T22:22:49.307Z,2.50
2019-05-11T22:25:18.964Z,2.40
2019-05-11T22:27:48.965Z,2.40
2019-05-11T22:30:18.878Z,2.45
2019-05-11T22:32:48.395Z,2.30
2019-05-11T22:35:18.507Z,2.40
2019-05-11T22:37:49.051Z,2.50
2019-05-11T22:40:19.130Z,2.30
2019-05-11T22:42:48.647Z,2.40
2019-05-11T22:45:18.787Z,2.08
2019-05-11T22:47:48.436Z,2.22
2019-05-11T22:50:18.743Z,2.80
2019-05-11T22:52:48.680Z,2.60
2019-05-11T22:55:18.870Z,2.58
2019-05-11T22:57:51.999Z,2.45
2019-05-11T23:00:24.625Z,2.20
2019-05-11T23:02:54.117Z,2.12
2019-05-11T23:05:23.573Z,2.55
2019-05-11T23:07:53.055Z,2.80
2019-05-11T23:10:23.747Z,2.50
2019-05-11T23:12:53.243Z,2.58
2019-05-11T23:15:22.743Z,2.67
2019-05-11T23:17:52.205Z,2.30
2019-05-11T23:20:21.716Z,2.40
2019-05-11T23:22:57.891Z,2.60
2019-05-11T23:25:22.413Z,2.67
2019-05-11T23:27:51.967Z,2.58
2019-05-11T23:30:21.683Z,2.70
2019-05-11T23:32:51.161Z,2.60
2019-05-11T23:35:20.689Z,2.30
2019-05-11T23:37:50.368Z,2.30
2019-05-11T23:40:20.108Z,2.30
2019-05-11T23:42:49.617Z,2.60
2019-05-11T23:45:19.646Z,2.70
2019-05-11T23:47:49.332Z,3.20
2019-05-11T23:50:19.454Z,3.50
2019-05-11T23:53:05.092Z,3.58
2019-05-11T23:55:20.272Z,3.37
2019-05-11T23:57:49.843Z,3.52
